Hansville, Washington
Current Conditions -  °F | °C
As of 5:53 AM on Friday 24 Oct 2014 (Local Time) from KPAE Reporting Station
Clear Clear  
Wind Chill: 43°   Ceiling: Unl
Heat Index: 48°   Visibility: 10mi
Dew Point: 42°   Wind: 12mph
Humidity: 80%   Direction: 150°SSE
Pressure: 30.03"   Gusts: 17mph
Location:  47.92°N, 122.56°W
Report Text: KPAE 241253Z AUTO 15010G15KT 10SM CLR 09/06 A3003 RMK AO2 SLP171 T00890056
Loading
Personal Weather Stations






























Interactive Weather Map
Tropical Storm Tracking
New forecast layout! Learn more

10-Day Weather Forecast

Advertisements
Track Severe Weather on mobile